Time;durP1;ratioP1;P1;durP2;ratioP2;P2;SDS_P1;SDS_P2;PMS_P1;PMS_P2;Temp;Humidity;BMP_temperature;BMP_pressure;BME280_temperature;BME280_humidity;BME280_pressure;Samples;Min_cycle;Max_cycle;Signal;HPM_P1;HPM_P2
2021/09/09 00:02:49;;;;;;;5.75;3.50;;;;;;;15.96;98.03;101152.91;6272419;28;20049;-79
2021/09/09 00:05:50;;;;;;;5.25;3.25;;;;;;;15.91;98.93;101148.88;6272225;28;20052;-79
2021/09/09 00:08:52;;;;;;;7.68;3.28;;;;;;;15.83;99.29;101146.75;6272801;28;20052;-78
2021/09/09 00:11:54;;;;;;;8.93;3.10;;;;;;;15.76;99.82;101148.13;6294254;22;21886;-76
2021/09/09 00:14:56;;;;;;;7.22;3.50;;;;;;;15.70;100.00;101137.94;6270877;28;20049;-76
2021/09/09 00:17:57;;;;;;;9.20;4.03;;;;;;;15.69;100.00;101133.59;6272108;28;20049;-74
2021/09/09 00:20:59;;;;;;;6.32;3.58;;;;;;;15.69;100.00;101130.94;6267648;28;20049;-75
2021/09/09 00:24:00;;;;;;;6.07;3.42;;;;;;;15.67;100.00;101128.41;6246717;28;20054;-76
2021/09/09 00:27:03;;;;;;;6.32;3.35;;;;;;;15.63;100.00;101128.69;6251170;28;20048;-76
2021/09/09 00:30:06;;;;;;;6.13;3.22;;;;;;;15.59;100.00;101120.09;6252158;28;20046;-76
2021/09/09 00:33:08;;;;;;;7.15;3.80;;;;;;;15.53;100.00;101111.72;6251847;28;20072;-76
2021/09/09 00:36:10;;;;;;;7.07;3.90;;;;;;;15.51;100.00;101114.47;6251700;28;20057;-76
2021/09/09 00:39:11;;;;;;;7.60;3.95;;;;;;;15.50;100.00;101107.50;6251788;28;20493;-76
2021/09/09 00:42:14;;;;;;;8.43;3.40;;;;;;;15.48;100.00;101117.31;6252166;28;20057;-75
2021/09/09 00:45:15;;;;;;;5.60;3.53;;;;;;;15.49;100.00;101108.44;6251499;28;20045;-75
2021/09/09 00:48:16;;;;;;;7.45;3.60;;;;;;;15.50;100.00;101106.66;6251819;28;20045;-77
2021/09/09 00:51:18;;;;;;;6.13;4.03;;;;;;;15.43;100.00;101112.34;6251779;28;20049;-74
2021/09/09 00:54:20;;;;;;;7.40;3.75;;;;;;;15.38;100.00;101111.81;6251525;28;20436;-74
2021/09/09 00:57:23;;;;;;;7.15;3.90;;;;;;;15.38;100.00;101113.59;6251689;28;20048;-76
2021/09/09 01:00:24;;;;;;;6.93;3.60;;;;;;;15.35;100.00;101108.50;6251420;28;20057;-74
2021/09/09 01:03:26;;;;;;;6.03;3.33;;;;;;;15.30;100.00;101108.81;6251211;28;20061;-75
2021/09/09 01:06:27;;;;;;;7.18;3.90;;;;;;;15.28;100.00;101101.94;6251507;28;20045;-76
2021/09/09 01:09:29;;;;;;;5.63;3.88;;;;;;;15.24;100.00;101103.94;6251306;28;20054;-76
2021/09/09 01:12:31;;;;;;;6.13;3.65;;;;;;;15.22;100.00;101103.22;6251183;28;20049;-75
2021/09/09 01:15:38;;;;;;;6.03;3.17;;;;;;;15.23;100.00;101105.75;6251004;28;20072;-76
2021/09/09 01:18:39;;;;;;;6.93;3.88;;;;;;;15.21;100.00;101099.72;6251205;28;20061;-76
2021/09/09 01:21:42;;;;;;;6.35;3.28;;;;;;;15.17;100.00;101092.06;6251245;28;20049;-75
2021/09/09 01:24:44;;;;;;;6.95;3.35;;;;;;;15.12;100.00;101097.66;6250670;28;20056;-76
2021/09/09 01:27:46;;;;;;;7.57;4.18;;;;;;;15.09;100.00;101094.38;6251161;28;20049;-74
2021/09/09 01:30:47;;;;;;;8.13;3.67;;;;;;;15.04;100.00;101096.50;6251005;28;20417;-76
2021/09/09 01:33:49;;;;;;;6.53;3.63;;;;;;;15.01;100.00;101096.69;6250921;28;20049;-76
2021/09/09 01:36:50;;;;;;;7.97;4.60;;;;;;;14.97;100.00;101090.75;6249362;28;20049;-73
2021/09/09 01:39:55;;;;;;;7.60;3.92;;;;;;;14.91;100.00;101088.53;6250803;28;20493;-74
2021/09/09 01:42:58;;;;;;;10.00;4.53;;;;;;;14.87;100.00;101087.88;6250869;28;20512;-77
2021/09/09 01:45:59;;;;;;;7.90;3.92;;;;;;;14.88;100.00;101084.25;6250119;28;20049;-73
2021/09/09 01:49:01;;;;;;;10.40;3.67;;;;;;;14.89;100.00;101085.09;6250641;28;20050;-76
2021/09/09 01:52:03;;;;;;;7.70;3.97;;;;;;;14.88;100.00;101081.63;6250610;28;20060;-74
2021/09/09 01:55:06;;;;;;;10.95;5.30;;;;;;;14.87;100.00;101085.22;6250378;28;20050;-76
2021/09/09 01:58:07;;;;;;;6.75;4.13;;;;;;;14.84;100.00;101079.28;6250240;28;20042;-76
2021/09/09 02:01:09;;;;;;;7.72;4.15;;;;;;;14.83;100.00;101077.59;6250255;28;20072;-76
2021/09/09 02:04:10;;;;;;;7.13;4.55;;;;;;;14.76;100.00;101078.91;6250049;28;20050;-74
2021/09/09 02:07:11;;;;;;;8.02;4.05;;;;;;;14.75;100.00;101075.44;6250440;28;20048;-73
2021/09/09 02:10:19;;;;;;;8.98;4.32;;;;;;;14.72;100.00;101075.66;6249993;28;20060;-76
2021/09/09 02:13:20;;;;;;;9.55;4.47;;;;;;;14.73;100.00;101072.06;6249880;28;20444;-75
2021/09/09 02:16:22;;;;;;;9.15;4.57;;;;;;;14.72;100.00;101070.38;6250193;28;20041;-76
2021/09/09 02:19:23;;;;;;;6.97;4.05;;;;;;;14.69;100.00;101068.75;6249938;28;20052;-76
2021/09/09 02:22:25;;;;;;;6.97;4.18;;;;;;;14.70;100.00;101064.31;6249389;28;20064;-76
2021/09/09 02:25:27;;;;;;;8.15;3.80;;;;;;;14.67;100.00;101068.03;6249313;28;20050;-76
2021/09/09 02:28:28;;;;;;;5.60;3.63;;;;;;;14.64;100.00;101070.00;6250036;28;20049;-76
2021/09/09 02:31:30;;;;;;;5.22;3.22;;;;;;;14.58;100.00;101058.03;6249579;28;20397;-75
2021/09/09 02:34:31;;;;;;;7.55;3.92;;;;;;;14.57;100.00;101060.75;6249128;28;20054;-75
2021/09/09 02:37:33;;;;;;;5.50;3.58;;;;;;;14.52;100.00;101054.94;6249268;28;20046;-75
2021/09/09 02:40:35;;;;;;;7.75;3.95;;;;;;;14.49;100.00;101056.00;6249430;28;20060;-76
2021/09/09 02:43:37;;;;;;;6.63;4.40;;;;;;;14.50;100.00;101047.09;6262800;28;20040;-75
2021/09/09 02:46:38;;;;;;;7.97;3.90;;;;;;;14.50;100.00;101051.53;6273279;28;20055;-76
2021/09/09 02:49:39;;;;;;;7.47;4.13;;;;;;;14.47;100.00;101052.53;6272972;28;20044;-75
2021/09/09 02:52:41;;;;;;;10.60;4.95;;;;;;;14.46;100.00;101046.41;6273393;28;20045;-76
2021/09/09 02:55:43;;;;;;;8.40;4.13;;;;;;;14.43;100.00;101041.31;6273260;28;20041;-75
2021/09/09 02:58:45;;;;;;;9.05;4.47;;;;;;;14.42;100.00;101031.69;6273250;28;20061;-76
2021/09/09 03:01:46;;;;;;;8.38;4.50;;;;;;;14.39;100.00;101031.88;6273505;28;20045;-75
2021/09/09 03:04:47;;;;;;;8.25;4.00;;;;;;;14.35;100.00;101025.13;6273168;28;20052;-75
2021/09/09 03:07:49;;;;;;;9.38;4.25;;;;;;;14.33;100.00;101027.00;6273125;28;20508;-75
2021/09/09 03:10:51;;;;;;;8.82;4.32;;;;;;;14.31;100.00;101026.25;6272609;28;20052;-75
2021/09/09 03:13:53;;;;;;;8.43;4.50;;;;;;;14.33;100.00;101015.56;6272427;28;20529;-75
2021/09/09 03:16:54;;;;;;;6.88;4.00;;;;;;;14.29;100.00;101022.84;6273078;28;20045;-75
2021/09/09 03:19:56;;;;;;;7.70;4.40;;;;;;;14.29;100.00;101011.44;6267080;28;20082;-76
2021/09/09 03:22:57;;;;;;;6.00;3.80;;;;;;;14.29;100.00;101019.38;6272312;28;20416;-75
2021/09/09 03:26:00;;;;;;;8.50;4.65;;;;;;;14.24;100.00;101013.53;6264241;28;20503;-76
2021/09/09 03:29:01;;;;;;;10.48;5.00;;;;;;;14.22;100.00;101011.00;6271295;28;20044;-76
2021/09/09 03:32:03;;;;;;;8.15;4.57;;;;;;;14.21;100.00;101006.63;6272475;28;20064;-75
2021/09/09 03:35:05;;;;;;;9.45;5.15;;;;;;;14.19;100.00;101004.09;6271888;28;20055;-76
2021/09/09 03:38:08;;;;;;;7.45;3.63;;;;;;;14.20;100.00;100994.38;6267253;28;20679;-75
2021/09/09 03:41:11;;;;;;;9.52;4.82;;;;;;;14.17;100.00;100994.56;6264909;28;20049;-75
2021/09/09 03:44:12;;;;;;;9.90;4.88;;;;;;;14.17;100.00;100998.06;6268952;28;20040;-75
2021/09/09 03:47:13;;;;;;;10.07;5.22;;;;;;;14.21;100.00;101003.97;6272232;28;20485;-76
2021/09/09 03:50:15;;;;;;;8.10;4.45;;;;;;;14.21;100.00;101003.97;6271078;28;20056;-75
2021/09/09 03:53:16;;;;;;;8.93;5.50;;;;;;;14.25;100.00;101008.13;6271501;28;20049;-75
2021/09/09 03:56:19;;;;;;;9.90;4.97;;;;;;;14.24;100.00;101001.16;6271589;28;20056;-75
2021/09/09 03:59:20;;;;;;;8.25;4.63;;;;;;;14.24;100.00;101001.16;6271552;28;20044;-76
2021/09/09 04:02:21;;;;;;;11.02;5.38;;;;;;;14.22;100.00;101003.06;6271909;28;20041;-75
2021/09/09 04:05:23;;;;;;;8.55;4.43;;;;;;;14.19;100.00;100992.69;6271162;28;20052;-76
2021/09/09 04:08:24;;;;;;;9.32;4.78;;;;;;;14.16;100.00;100995.50;6272256;28;20045;-76
2021/09/09 04:11:27;;;;;;;12.43;5.30;;;;;;;14.16;100.00;100993.72;6271891;28;20060;-76
2021/09/09 04:14:28;;;;;;;10.10;5.28;;;;;;;14.11;100.00;100990.50;6271734;28;20059;-75
2021/09/09 04:17:30;;;;;;;11.27;5.15;;;;;;;14.08;100.00;100990.72;6271805;28;20051;-75
2021/09/09 04:20:31;;;;;;;8.68;4.35;;;;;;;14.07;100.00;100990.81;6272017;28;20053;-76
2021/09/09 04:23:32;;;;;;;6.95;4.35;;;;;;;14.04;100.00;100989.22;6270978;28;20056;-76
2021/09/09 04:26:35;;;;;;;9.82;5.60;;;;;;;14.02;100.00;100977.06;6271801;28;20044;-75
2021/09/09 04:29:36;;;;;;;10.20;4.88;;;;;;;13.99;100.00;100977.22;6271923;28;20075;-75
2021/09/09 04:32:38;;;;;;;9.15;4.80;;;;;;;13.94;100.00;100969.59;6271547;28;20041;-75
2021/09/09 04:35:39;;;;;;;12.02;4.88;;;;;;;13.91;100.00;100973.31;6270173;28;20044;-75
2021/09/09 04:38:40;;;;;;;14.45;5.25;;;;;;;13.86;100.00;100966.63;6271716;28;20037;-75
2021/09/09 04:41:43;;;;;;;10.65;4.90;;;;;;;13.81;100.00;100969.56;6272137;28;20045;-74
2021/09/09 04:44:44;;;;;;;7.75;4.60;;;;;;;13.74;100.00;100968.22;6271573;28;20045;-75
2021/09/09 04:47:46;;;;;;;9.73;5.03;;;;;;;13.71;100.00;100965.78;6265474;28;20049;-75
2021/09/09 04:50:47;;;;;;;8.55;4.43;;;;;;;13.69;100.00;100971.16;6263167;28;20496;-74
2021/09/09 04:53:49;;;;;;;8.93;4.93;;;;;;;13.66;100.00;100960.78;6264695;28;20439;-75
2021/09/09 04:56:51;;;;;;;7.50;4.15;;;;;;;13.62;100.00;100961.91;6270752;28;20455;-74
2021/09/09 04:59:53;;;;;;;11.60;5.53;;;;;;;13.60;100.00;100958.53;6270178;28;20052;-76
2021/09/09 05:02:54;;;;;;;8.18;4.45;;;;;;;13.59;100.00;100961.28;6271242;28;20064;-75
2021/09/09 05:05:55;;;;;;;6.03;3.72;;;;;;;13.60;100.00;100955.06;6270812;28;20420;-75
2021/09/09 05:08:57;;;;;;;7.13;4.20;;;;;;;13.54;100.00;100956.28;6271164;28;20480;-74
2021/09/09 05:12:00;;;;;;;10.68;4.95;;;;;;;13.49;100.00;100954.84;6262807;28;20049;-77
2021/09/09 05:15:01;;;;;;;7.93;4.55;;;;;;;13.41;100.00;100958.84;6272222;28;20050;-77
2021/09/09 05:18:02;;;;;;;9.57;5.35;;;;;;;13.38;100.00;100953.75;6275203;28;20045;-77
2021/09/09 05:21:04;;;;;;;11.20;5.18;;;;;;;13.37;100.00;100948.56;6275836;28;20045;-77
2021/09/09 05:24:05;;;;;;;10.77;5.40;;;;;;;13.43;100.00;100945.53;6273465;28;20061;-75
2021/09/09 05:27:08;;;;;;;9.95;4.53;;;;;;;13.45;100.00;100933.09;6275805;28;20045;-77
2021/09/09 05:30:10;;;;;;;8.30;5.05;;;;;;;13.46;100.00;100942.72;6275203;28;20424;-77
2021/09/09 05:33:13;;;;;;;9.32;5.18;;;;;;;13.47;100.00;100947.03;6275519;28;20049;-77
2021/09/09 05:36:16;;;;;;;11.70;4.78;;;;;;;13.50;100.00;100952.16;6274426;28;20081;-76
2021/09/09 05:39:17;;;;;;;10.48;5.70;;;;;;;13.52;100.00;100949.41;6275001;28;20131;-77
2021/09/09 05:42:20;;;;;;;9.02;5.07;;;;;;;13.58;100.00;100947.25;6275510;28;20057;-77
2021/09/09 05:45:21;;;;;;;19.27;5.63;;;;;;;13.62;100.00;100953.16;6275372;28;20049;-77
2021/09/09 05:48:22;;;;;;;9.68;5.30;;;;;;;13.65;100.00;100950.31;6275622;28;20037;-77
2021/09/09 05:51:24;;;;;;;14.40;6.07;;;;;;;13.62;100.00;100946.06;6275377;28;20049;-77
2021/09/09 05:54:25;;;;;;;10.65;5.22;;;;;;;13.64;100.00;100948.63;6275214;28;20053;-77
2021/09/09 05:57:28;;;;;;;13.70;5.78;;;;;;;13.72;100.00;100949.00;6275181;28;20045;-77
2021/09/09 06:00:31;;;;;;;10.73;5.38;;;;;;;13.81;100.00;100948.44;6273796;28;20048;-77
2021/09/09 06:03:32;;;;;;;12.70;6.50;;;;;;;13.91;100.00;100946.03;6272595;28;20095;-77
2021/09/09 06:06:34;;;;;;;10.77;6.00;;;;;;;13.98;100.00;100942.03;6269414;28;20052;-76
2021/09/09 06:09:38;;;;;;;8.65;5.38;;;;;;;14.07;100.00;100938.81;6271519;28;20056;-75
2021/09/09 06:12:40;;;;;;;10.20;5.47;;;;;;;14.11;100.00;100945.59;6272670;28;20060;-74
2021/09/09 06:15:42;;;;;;;12.45;5.57;;;;;;;14.14;100.00;100940.13;6273429;28;20056;-74
2021/09/09 06:18:43;;;;;;;11.82;5.90;;;;;;;14.20;100.00;100938.84;6310900;22;20056;-80
2021/09/09 06:21:44;;;;;;;9.23;5.22;;;;;;;14.27;100.00;100936.69;6292453;28;20496;-80
2021/09/09 06:24:46;;;;;;;12.90;6.20;;;;;;;14.30;100.00;100937.28;6289834;28;20049;-80
2021/09/09 06:27:48;;;;;;;10.32;5.28;;;;;;;14.35;100.00;100926.41;6291162;28;20052;-79
2021/09/09 06:30:50;;;;;;;12.85;5.97;;;;;;;14.40;100.00;100927.00;6283982;28;20051;-80
2021/09/09 06:33:51;;;;;;;8.63;4.55;;;;;;;14.45;100.00;100936.31;6284753;28;20052;-80
2021/09/09 06:36:52;;;;;;;13.07;6.20;;;;;;;14.50;100.00;100930.75;6285491;28;20052;-80
2021/09/09 06:39:54;;;;;;;9.40;4.85;;;;;;;14.58;100.00;100927.56;6283477;28;20056;-80
2021/09/09 06:42:56;;;;;;;12.35;5.85;;;;;;;14.61;100.00;100922.91;6275005;28;20053;-80
2021/09/09 06:45:58;;;;;;;13.73;6.10;;;;;;;14.67;100.00;100917.22;6275602;28;20052;-80
2021/09/09 06:48:59;;;;;;;14.40;6.05;;;;;;;14.75;100.00;100918.50;6280283;28;20047;-80
2021/09/09 06:52:00;;;;;;;10.38;5.75;;;;;;;14.80;100.00;100927.81;6282629;28;20052;-80
2021/09/09 06:55:02;;;;;;;8.95;5.28;;;;;;;14.84;100.00;100924.00;6283056;28;20224;-80
2021/09/09 06:58:04;;;;;;;10.88;5.47;;;;;;;14.88;100.00;100924.66;6283642;28;20049;-80
2021/09/09 07:01:06;;;;;;;13.48;5.72;;;;;;;14.90;100.00;100918.31;6277909;28;20556;-80
2021/09/09 07:04:07;;;;;;;9.88;5.10;;;;;;;14.97;100.00;100916.91;6283633;28;20048;-80
2021/09/09 07:07:08;;;;;;;8.45;5.05;;;;;;;15.02;100.00;100919.25;6284001;28;20049;-81
2021/09/09 07:10:10;;;;;;;10.68;5.32;;;;;;;15.06;100.00;100918.09;6283526;28;20049;-80
2021/09/09 07:13:17;;;;;;;7.63;4.28;;;;;;;15.13;100.00;100921.16;6296339;28;20045;-80
2021/09/09 07:16:18;;;;;;;11.85;5.13;;;;;;;15.20;100.00;100925.06;6274747;28;20420;-80
2021/09/09 07:19:19;;;;;;;13.27;6.30;;;;;;;15.26;100.00;100918.47;6274226;28;20060;-80
2021/09/09 07:22:21;;;;;;;8.57;4.63;;;;;;;15.34;100.00;100930.25;6274826;28;20045;-80
2021/09/09 07:25:22;;;;;;;9.45;5.18;;;;;;;15.41;100.00;100928.03;6274715;28;20404;-80
2021/09/09 07:28:25;;;;;;;8.38;4.32;;;;;;;15.48;100.00;100932.75;6274674;28;20049;-80
2021/09/09 07:31:26;;;;;;;8.75;4.60;;;;;;;15.57;100.00;100933.06;6276411;28;20404;-80
2021/09/09 07:34:28;;;;;;;10.73;5.10;;;;;;;15.65;100.00;100931.59;6298777;28;20457;-80
2021/09/09 07:37:29;;;;;;;13.80;5.13;;;;;;;15.71;100.00;100928.53;6298714;28;20431;-80
2021/09/09 07:40:30;;;;;;;7.85;4.70;;;;;;;15.88;100.00;100931.75;6280253;28;20060;-80
2021/09/09 07:43:33;;;;;;;8.55;4.47;;;;;;;15.94;100.00;100942.75;6285960;28;20037;-81
2021/09/09 07:46:35;;;;;;;7.90;4.55;;;;;;;16.00;100.00;100930.00;6277572;28;20052;-81
2021/09/09 07:49:37;;;;;;;7.90;4.38;;;;;;;16.09;100.00;100926.69;6289814;28;20179;-81
2021/09/09 07:52:41;;;;;;;10.93;4.60;;;;;;;16.16;100.00;100926.09;6288407;28;20411;-80
2021/09/09 07:55:42;;;;;;;9.35;4.43;;;;;;;16.26;100.00;100933.38;6289566;28;20044;-81
2021/09/09 07:58:48;;;;;;;11.32;4.05;;;;;;;16.30;100.00;100922.41;6276452;28;20045;-79
2021/09/09 08:01:50;;;;;;;7.55;4.38;;;;;;;16.42;100.00;100923.31;6281104;28;20049;-79
2021/09/09 08:04:51;;;;;;;11.43;4.20;;;;;;;16.52;100.00;100918.16;6292165;28;20049;-79
2021/09/09 08:07:52;;;;;;;18.50;10.45;;;;;;;16.59;100.00;100922.91;6283974;28;20044;-79
2021/09/09 08:10:54;;;;;;;12.25;6.03;;;;;;;16.66;100.00;100928.56;6286450;28;20048;-79
2021/09/09 08:13:56;;;;;;;9.50;4.43;;;;;;;16.74;100.00;100920.91;6286080;28;20055;-80
2021/09/09 08:16:58;;;;;;;10.10;4.50;;;;;;;16.84;100.00;100919.25;6283676;28;20052;-80
2021/09/09 08:19:59;;;;;;;6.70;4.40;;;;;;;16.91;100.00;100924.94;6274220;28;20511;-79
2021/09/09 08:23:01;;;;;;;6.75;3.90;;;;;;;16.98;100.00;100921.66;6274960;28;20539;-80
2021/09/09 08:26:02;;;;;;;9.88;4.40;;;;;;;17.07;100.00;100914.81;6281186;28;20053;-80
2021/09/09 08:29:05;;;;;;;6.50;3.42;;;;;;;17.18;100.00;100911.34;6273982;28;20051;-80
2021/09/09 08:32:07;;;;;;;6.22;4.03;;;;;;;17.22;100.00;100913.63;6277139;28;20040;-80
2021/09/09 08:35:10;;;;;;;9.18;4.55;;;;;;;17.32;100.00;100912.91;6299213;28;20049;-80
2021/09/09 08:38:11;;;;;;;5.90;3.75;;;;;;;17.42;100.00;100908.53;6295094;28;20045;-80
2021/09/09 08:41:13;;;;;;;6.40;3.47;;;;;;;17.51;100.00;100910.47;6282210;28;20500;-81
2021/09/09 08:44:15;;;;;;;6.13;3.78;;;;;;;17.66;100.00;100908.38;6278672;28;20152;-80
2021/09/09 08:47:17;;;;;;;6.47;3.85;;;;;;;17.73;100.00;100901.63;6293745;28;20049;-80
2021/09/09 08:50:19;;;;;;;6.80;3.75;;;;;;;17.79;100.00;100901.13;6284661;28;20056;-81
2021/09/09 08:53:21;;;;;;;6.28;3.72;;;;;;;17.92;99.17;100904.50;6285619;28;20049;-80
2021/09/09 08:56:22;;;;;;;6.43;3.95;;;;;;;18.07;96.58;100894.41;6288830;28;20045;-80
2021/09/09 08:59:25;;;;;;;5.25;3.28;;;;;;;18.19;97.14;100896.06;6283065;28;20045;-80
2021/09/09 09:02:27;;;;;;;6.57;3.72;;;;;;;18.27;96.85;100895.44;6284661;28;20049;-80
2021/09/09 09:05:28;;;;;;;9.52;4.50;;;;;;;18.30;97.79;100894.31;6280199;28;20048;-77
2021/09/09 09:08:48;;;;;;;9.00;3.65;;;;;;;18.31;97.64;100891.56;6293935;28;20052;-80
2021/09/09 09:11:50;;;;;;;7.43;3.22;;;;;;;18.41;98.59;100892.47;6310234;28;20055;-79
2021/09/09 09:15:10;;;;;;;5.90;2.97;;;;;;;18.51;98.29;100892.53;6300937;28;20059;-77
2021/09/09 09:18:12;;;;;;;7.55;3.83;;;;;;;18.53;97.29;100893.25;6300767;28;20435;-78
2021/09/09 09:21:14;;;;;;;7.57;3.70;;;;;;;18.61;96.15;100888.09;6288231;28;20040;-77
2021/09/09 09:24:19;;;;;;;5.18;3.50;;;;;;;18.77;95.95;100889.50;6285857;28;20067;-77
2021/09/09 09:27:21;;;;;;;4.60;2.97;;;;;;;18.87;94.11;100879.75;6286146;28;20047;-77
2021/09/09 09:30:24;;;;;;;6.40;3.42;;;;;;;19.04;93.76;100873.81;6286363;28;20040;-79
2021/09/09 09:33:31;;;;;;;9.35;4.10;;;;;;;19.09;93.29;100876.06;6288177;28;20053;-78
2021/09/09 09:36:34;;;;;;;7.97;3.35;;;;;;;19.14;92.57;100873.84;6287473;28;20041;-77
2021/09/09 09:39:36;;;;;;;5.93;3.50;;;;;;;19.23;93.93;100868.56;6285780;28;20044;-76
2021/09/09 09:42:43;;;;;;;7.82;3.88;;;;;;;19.34;93.94;100862.28;6287007;28;20044;-78
2021/09/09 09:45:52;;;;;;;5.75;3.70;;;;;;;19.48;93.94;100861.03;6285749;28;20052;-77
2021/09/09 09:48:54;;;;;;;5.65;3.42;;;;;;;19.59;91.53;100865.44;6287101;28;20070;-77
2021/09/09 09:51:57;;;;;;;7.57;4.18;;;;;;;19.79;87.73;100858.34;6278986;28;20519;-80
2021/09/09 09:55:00;;;;;;;7.57;3.75;;;;;;;19.90;88.37;100850.22;6279778;28;20420;-79
2021/09/09 09:58:01;;;;;;;6.70;3.83;;;;;;;19.94;87.55;100848.94;6276872;28;20439;-80
2021/09/09 10:01:05;;;;;;;6.03;3.28;;;;;;;20.04;87.84;100844.47;6277947;28;20057;-80
2021/09/09 10:04:09;;;;;;;5.35;3.10;;;;;;;20.11;87.47;100850.06;6277377;28;20048;-80
2021/09/09 10:07:11;;;;;;;6.10;2.97;;;;;;;20.35;85.91;100846.94;6278945;28;20049;-79
2021/09/09 10:10:12;;;;;;;5.80;2.83;;;;;;;20.43;82.27;100836.41;6278056;28;20053;-80
2021/09/09 10:13:17;;;;;;;5.25;2.90;;;;;;;20.59;81.83;100831.34;6277987;28;20056;-79
2021/09/09 10:16:22;;;;;;;8.95;3.10;;;;;;;20.71;79.93;100824.00;6276944;28;20057;-80
2021/09/09 10:19:26;;;;;;;5.53;2.85;;;;;;;20.81;79.30;100827.50;6276652;28;20045;-79
2021/09/09 10:22:28;;;;;;;5.43;2.50;;;;;;;20.87;78.94;100813.53;6276892;28;20080;-80
2021/09/09 10:25:45;;;;;;;4.15;2.78;;;;;;;21.00;76.46;100822.06;6289257;28;20056;-80
2021/09/09 10:28:48;;;;;;;5.68;2.95;;;;;;;21.13;74.36;100823.56;6295279;28;20419;-79
2021/09/09 10:31:50;;;;;;;6.00;3.05;;;;;;;21.33;74.06;100827.00;6295131;28;20580;-80
2021/09/09 10:35:30;;;;;;;5.65;3.00;;;;;;;21.49;73.09;100817.34;6275661;28;20049;-81
2021/09/09 10:38:33;;;;;;;4.65;2.47;;;;;;;21.59;70.57;100817.25;6276131;28;20388;-79
2021/09/09 10:41:35;;;;;;;12.15;6.75;;;;;;;21.67;71.17;100812.00;6294135;28;20040;-79
2021/09/09 10:44:49;;;;;;;5.25;3.35;;;;;;;21.78;71.87;100802.91;6300675;28;20045;-80
2021/09/09 10:47:52;;;;;;;5.68;2.30;;;;;;;21.93;69.82;100813.88;6299394;28;20053;-80
2021/09/09 10:51:02;;;;;;;5.05;2.85;;;;;;;22.01;69.50;100806.78;6298839;28;20510;-80
2021/09/09 10:54:04;;;;;;;7.28;2.72;;;;;;;22.08;69.49;100808.84;6298477;28;20414;-80
2021/09/09 10:57:14;;;;;;;5.40;3.13;;;;;;;22.26;67.94;100799.00;6294475;28;20052;-80
2021/09/09 11:00:16;;;;;;;4.50;2.42;;;;;;;22.46;67.41;100797.78;6274552;28;20056;-80
2021/09/09 11:03:38;;;;;;;3.58;2.22;;;;;;;22.74;66.58;100798.44;6274438;28;20132;-81
2021/09/09 11:06:39;;;;;;;5.45;3.22;;;;;;;22.93;68.86;100802.72;6280485;28;20048;-81
2021/09/09 11:09:40;;;;;;;3.78;2.60;;;;;;;23.12;66.10;100796.31;6299612;28;20052;-81
2021/09/09 11:12:43;;;;;;;5.35;3.25;;;;;;;23.29;67.50;100800.69;6299830;28;20060;-79
2021/09/09 11:15:44;;;;;;;4.05;2.83;;;;;;;23.50;66.01;100802.94;6300762;28;20510;-80
2021/09/09 11:18:47;;;;;;;5.75;2.80;;;;;;;23.71;64.78;100801.66;6300240;28;20048;-77
2021/09/09 11:21:50;;;;;;;6.15;3.28;;;;;;;23.92;62.50;100787.75;6300566;28;20055;-77
2021/09/09 11:24:51;;;;;;;4.97;2.83;;;;;;;24.21;59.72;100782.72;6300524;28;20056;-78
2021/09/09 11:27:52;;;;;;;5.50;2.72;;;;;;;24.50;60.70;100792.94;6300640;28;20055;-78
2021/09/09 11:31:11;;;;;;;3.67;2.42;;;;;;;24.70;62.28;100782.63;6302841;28;20048;-77
2021/09/09 11:34:14;;;;;;;6.82;3.42;;;;;;;24.90;62.39;100779.53;6300051;28;20462;-77
2021/09/09 11:37:16;;;;;;;4.25;2.47;;;;;;;24.93;61.01;100777.31;6300209;28;20048;-77
2021/09/09 11:40:18;;;;;;;2.97;2.38;;;;;;;24.91;62.62;100776.66;6301862;28;20499;-77
2021/09/09 11:43:20;;;;;;;3.63;2.53;;;;;;;25.14;61.79;100775.94;6291835;28;20061;-78
2021/09/09 11:46:28;;;;;;;5.30;3.00;;;;;;;25.39;59.88;100773.91;6276532;28;20396;-78
2021/09/09 11:49:31;;;;;;;3.85;2.47;;;;;;;25.71;56.71;100780.97;6276326;28;20061;-78
2021/09/09 11:52:33;;;;;;;8.00;2.90;;;;;;;25.85;58.18;100774.00;6273744;28;20412;-78
2021/09/09 11:55:37;;;;;;;6.13;2.47;;;;;;;26.02;55.82;100776.34;6273507;28;20052;-78
2021/09/09 11:58:39;;;;;;;3.50;2.38;;;;;;;26.22;54.71;100768.59;6273816;28;20053;-79
2021/09/09 12:01:41;;;;;;;5.18;3.00;;;;;;;26.32;57.77;100771.03;6274986;28;20385;-80
2021/09/09 12:04:45;;;;;;;3.65;2.35;;;;;;;26.31;58.17;100770.19;6274903;28;20057;-79
2021/09/09 12:07:46;;;;;;;4.50;2.63;;;;;;;26.37;57.38;100760.50;6290511;28;20622;-81
2021/09/09 12:10:48;;;;;;;4.40;2.80;;;;;;;26.53;59.41;100759.56;6300641;28;20480;-81
2021/09/09 12:13:51;;;;;;;5.38;2.65;;;;;;;26.65;58.16;100752.66;6299954;28;20053;-81
2021/09/09 12:17:05;;;;;;;4.57;2.90;;;;;;;26.89;52.17;100754.22;6299774;28;20051;-81
2021/09/09 12:20:11;;;;;;;5.07;2.47;;;;;;;27.00;51.45;100753.72;6281506;28;20045;-81
2021/09/09 12:23:17;;;;;;;4.00;2.42;;;;;;;27.11;56.36;100748.91;6271224;28;20416;-80
2021/09/09 12:26:19;;;;;;;5.07;2.92;;;;;;;27.09;54.67;100751.78;6271677;28;20463;-79
2021/09/09 12:29:20;;;;;;;3.45;2.47;;;;;;;27.11;55.85;100743.50;6271597;28;20049;-81
2021/09/09 12:32:25;;;;;;;4.13;2.63;;;;;;;27.25;54.59;100740.78;6271827;28;20053;-80
2021/09/09 12:35:28;;;;;;;4.28;2.28;;;;;;;27.33;54.21;100744.38;6271253;28;20049;-81
2021/09/09 12:38:31;;;;;;;5.30;2.45;;;;;;;27.40;54.45;100740.72;6271733;28;20063;-78
2021/09/09 12:41:32;;;;;;;3.53;2.33;;;;;;;27.49;52.73;100733.34;6271428;28;20044;-79
2021/09/09 12:44:37;;;;;;;3.70;2.58;;;;;;;27.66;54.11;100734.75;6271043;28;20053;-78
2021/09/09 12:47:38;;;;;;;6.75;2.78;;;;;;;27.66;55.09;100739.28;6271296;28;20048;-79
2021/09/09 12:50:51;;;;;;;4.03;2.20;;;;;;;27.78;48.99;100726.97;6271737;28;20049;-77
2021/09/09 12:53:53;;;;;;;5.57;2.70;;;;;;;27.84;54.36;100730.75;6271514;28;20056;-77
2021/09/09 12:56:56;;;;;;;6.25;2.50;;;;;;;27.92;48.96;100725.22;6271238;28;20064;-82
2021/09/09 12:59:58;;;;;;;3.97;2.45;;;;;;;27.99;51.48;100728.81;6271388;28;20056;-77
2021/09/09 13:02:59;;;;;;;6.43;2.50;;;;;;;28.03;51.12;100725.53;6271108;28;20439;-77
2021/09/09 13:06:03;;;;;;;3.90;2.42;;;;;;;28.04;52.42;100723.66;6272505;28;20149;-77
2021/09/09 13:09:04;;;;;;;5.25;2.22;;;;;;;28.13;49.68;100719.78;6296237;28;20465;-76
2021/09/09 13:12:06;;;;;;;4.20;2.45;;;;;;;28.27;49.04;100723.41;6296169;28;20048;-78
2021/09/09 13:15:08;;;;;;;4.45;2.60;;;;;;;28.33;49.34;100715.31;6295671;28;20519;-76
2021/09/09 13:18:10;;;;;;;7.45;2.47;;;;;;;28.29;51.46;100714.03;6295989;28;20059;-76
2021/09/09 13:21:16;;;;;;;3.90;2.55;;;;;;;28.36;51.32;100714.13;6296156;28;20048;-78
2021/09/09 13:24:17;;;;;;;8.63;3.22;;;;;;;28.21;50.34;100706.13;6298186;28;20050;-76
2021/09/09 13:27:18;;;;;;;3.50;2.47;;;;;;;28.28;52.17;100706.13;6298447;28;20068;-77
2021/09/09 13:30:20;;;;;;;3.47;2.40;;;;;;;28.23;51.61;100705.91;6281965;28;20415;-77
2021/09/09 13:33:21;;;;;;;2.85;2.10;;;;;;;28.25;50.59;100704.69;6298652;28;20056;-76
2021/09/09 13:36:24;;;;;;;4.18;2.72;;;;;;;28.33;50.52;100703.66;6300500;28;20049;-77
2021/09/09 13:39:25;;;;;;;4.45;2.65;;;;;;;28.31;51.31;100703.88;6300148;28;20048;-76
2021/09/09 13:42:27;;;;;;;3.65;2.38;;;;;;;28.47;50.71;100701.91;6300333;28;20049;-81
2021/09/09 13:45:29;;;;;;;4.68;2.45;;;;;;;28.63;49.14;100707.00;6301677;28;20052;-78
2021/09/09 13:48:30;;;;;;;3.90;2.80;;;;;;;28.68;49.90;100700.97;6295364;28;20064;-78
2021/09/09 13:51:33;;;;;;;6.72;2.38;;;;;;;28.77;47.89;100697.88;6282401;28;20051;-77
2021/09/09 13:54:34;;;;;;;3.53;2.38;;;;;;;28.82;47.37;100695.41;6281017;28;20060;-76
2021/09/09 13:57:35;;;;;;;4.88;2.25;;;;;;;28.86;46.26;100700.41;6281468;28;20064;-78
2021/09/09 14:00:37;;;;;;;3.13;2.15;;;;;;;28.35;49.89;100700.81;6285621;28;20049;-76
2021/09/09 14:03:38;;;;;;;4.28;2.63;;;;;;;28.15;47.68;100693.38;6284732;28;20060;-77